sensor_id;sensor_type;location;lat;lon;timestamp;P1;durP1;ratioP1;P2;durP2;ratioP2
69623;SDS011;56843;52.020;5.670;2022-10-29T00:01:22;18.58;;;2.72;;
69623;SDS011;56843;52.020;5.670;2022-10-29T00:02:53;8.67;;;2.73;;
69623;SDS011;56843;52.020;5.670;2022-10-29T00:04:23;17.07;;;3.23;;
69623;SDS011;56843;52.020;5.670;2022-10-29T00:05:55;26.90;;;3.03;;
69623;SDS011;56843;52.020;5.670;2022-10-29T00:07:26;21.40;;;2.95;;
69623;SDS011;56843;52.020;5.670;2022-10-29T00:08:57;13.63;;;3.50;;
69623;SDS011;56843;52.020;5.670;2022-10-29T00:10:28;14.35;;;3.28;;
69623;SDS011;56843;52.020;5.670;2022-10-29T00:11:59;13.40;;;3.05;;
69623;SDS011;56843;52.020;5.670;2022-10-29T00:13:29;11.13;;;2.30;;
69623;SDS011;56843;52.020;5.670;2022-10-29T00:15:00;29.90;;;3.30;;
69623;SDS011;56843;52.020;5.670;2022-10-29T00:16:35;19.20;;;2.70;;
69623;SDS011;56843;52.020;5.670;2022-10-29T00:18:07;12.77;;;2.85;;
69623;SDS011;56843;52.020;5.670;2022-10-29T00:19:37;9.90;;;2.77;;
69623;SDS011;56843;52.020;5.670;2022-10-29T00:21:09;18.23;;;3.28;;
69623;SDS011;56843;52.020;5.670;2022-10-29T00:22:42;22.50;;;2.92;;
69623;SDS011;56843;52.020;5.670;2022-10-29T00:24:13;18.30;;;3.97;;
69623;SDS011;56843;52.020;5.670;2022-10-29T00:25:43;15.67;;;3.40;;
69623;SDS011;56843;52.020;5.670;2022-10-29T00:27:14;19.75;;;2.53;;
69623;SDS011;56843;52.020;5.670;2022-10-29T00:28:44;9.53;;;2.30;;
69623;SDS011;56843;52.020;5.670;2022-10-29T00:30:15;14.33;;;2.47;;
69623;SDS011;56843;52.020;5.670;2022-10-29T00:31:48;10.38;;;2.22;;
69623;SDS011;56843;52.020;5.670;2022-10-29T00:33:19;24.35;;;3.20;;
69623;SDS011;56843;52.020;5.670;2022-10-29T00:34:50;22.40;;;2.80;;
69623;SDS011;56843;52.020;5.670;2022-10-29T00:36:21;20.85;;;3.00;;
69623;SDS011;56843;52.020;5.670;2022-10-29T00:37:54;8.57;;;2.15;;
69623;SDS011;56843;52.020;5.670;2022-10-29T00:39:24;22.87;;;3.53;;
69623;SDS011;56843;52.020;5.670;2022-10-29T00:40:54;17.00;;;3.87;;
69623;SDS011;56843;52.020;5.670;2022-10-29T00:42:25;17.05;;;2.70;;
69623;SDS011;56843;52.020;5.670;2022-10-29T00:45:54;18.00;;;3.30;;
69623;SDS011;56843;52.020;5.670;2022-10-29T00:47:36;16.52;;;3.28;;
69623;SDS011;56843;52.020;5.670;2022-10-29T00:49:07;17.90;;;3.30;;
69623;SDS011;56843;52.020;5.670;2022-10-29T00:50:39;20.35;;;3.10;;
69623;SDS011;56843;52.020;5.670;2022-10-29T00:52:09;25.80;;;3.70;;
69623;SDS011;56843;52.020;5.670;2022-10-29T00:53:45;19.77;;;3.63;;
69623;SDS011;56843;52.020;5.670;2022-10-29T00:55:20;17.65;;;3.42;;
69623;SDS011;56843;52.020;5.670;2022-10-29T00:56:51;14.23;;;3.15;;
69623;SDS011;56843;52.020;5.670;2022-10-29T00:58:26;19.92;;;2.92;;
69623;SDS011;56843;52.020;5.670;2022-10-29T00:59:58;17.93;;;2.23;;
69623;SDS011;56843;52.020;5.670;2022-10-29T01:03:37;17.27;;;3.22;;
69623;SDS011;56843;52.020;5.670;2022-10-29T01:05:08;22.48;;;3.58;;
69623;SDS011;56843;52.020;5.670;2022-10-29T01:06:40;20.50;;;3.20;;
69623;SDS011;56843;52.020;5.670;2022-10-29T01:08:15;22.23;;;3.67;;
69623;SDS011;56843;52.020;5.670;2022-10-29T01:09:46;15.43;;;3.70;;
69623;SDS011;56843;52.020;5.670;2022-10-29T01:13:32;14.25;;;3.53;;
69623;SDS011;56843;52.020;5.670;2022-10-29T01:18:43;16.25;;;3.22;;
69623;SDS011;56843;52.020;5.670;2022-10-29T01:22:42;10.57;;;2.97;;
69623;SDS011;56843;52.020;5.670;2022-10-29T01:24:18;21.42;;;3.53;;
69623;SDS011;56843;52.020;5.670;2022-10-29T01:28:05;11.90;;;2.80;;
69623;SDS011;56843;52.020;5.670;2022-10-29T01:30:03;14.43;;;3.15;;
69623;SDS011;56843;52.020;5.670;2022-10-29T01:32:00;16.33;;;2.90;;
69623;SDS011;56843;52.020;5.670;2022-10-29T01:34:16;24.73;;;3.07;;
69623;SDS011;56843;52.020;5.670;2022-10-29T01:41:32;12.35;;;2.83;;
69623;SDS011;56843;52.020;5.670;2022-10-29T01:43:07;21.20;;;3.72;;
69623;SDS011;56843;52.020;5.670;2022-10-29T01:44:49;20.38;;;3.75;;
69623;SDS011;56843;52.020;5.670;2022-10-29T01:48:14;21.17;;;3.70;;
69623;SDS011;56843;52.020;5.670;2022-10-29T01:49:50;18.10;;;3.20;;
69623;SDS011;56843;52.020;5.670;2022-10-29T01:51:24;16.17;;;3.60;;
69623;SDS011;56843;52.020;5.670;2022-10-29T01:52:58;23.60;;;4.30;;
69623;SDS011;56843;52.020;5.670;2022-10-29T01:54:30;31.95;;;5.00;;
69623;SDS011;56843;52.020;5.670;2022-10-29T01:56:00;16.98;;;4.20;;
69623;SDS011;56843;52.020;5.670;2022-10-29T01:57:35;29.23;;;4.63;;
69623;SDS011;56843;52.020;5.670;2022-10-29T01:59:09;13.93;;;4.15;;
69623;SDS011;56843;52.020;5.670;2022-10-29T02:00:47;21.20;;;4.47;;
69623;SDS011;56843;52.020;5.670;2022-10-29T02:02:25;15.95;;;4.20;;
69623;SDS011;56843;52.020;5.670;2022-10-29T02:07:44;15.10;;;4.30;;
69623;SDS011;56843;52.020;5.670;2022-10-29T02:09:27;19.80;;;4.32;;
69623;SDS011;56843;52.020;5.670;2022-10-29T02:11:06;20.92;;;4.43;;
69623;SDS011;56843;52.020;5.670;2022-10-29T02:12:48;18.35;;;5.88;;
69623;SDS011;56843;52.020;5.670;2022-10-29T02:14:28;22.00;;;4.50;;
69623;SDS011;56843;52.020;5.670;2022-10-29T02:16:03;11.85;;;3.30;;
69623;SDS011;56843;52.020;5.670;2022-10-29T02:17:36;21.10;;;7.93;;
69623;SDS011;56843;52.020;5.670;2022-10-29T02:19:07;19.43;;;4.50;;
69623;SDS011;56843;52.020;5.670;2022-10-29T02:20:41;18.70;;;4.00;;
69623;SDS011;56843;52.020;5.670;2022-10-29T02:22:13;18.00;;;5.07;;
69623;SDS011;56843;52.020;5.670;2022-10-29T02:23:44;22.50;;;6.40;;
69623;SDS011;56843;52.020;5.670;2022-10-29T02:25:15;17.83;;;6.15;;
69623;SDS011;56843;52.020;5.670;2022-10-29T02:26:46;13.87;;;5.00;;
69623;SDS011;56843;52.020;5.670;2022-10-29T02:28:16;22.50;;;5.93;;
69623;SDS011;56843;52.020;5.670;2022-10-29T02:29:47;19.37;;;6.70;;
69623;SDS011;56843;52.020;5.670;2022-10-29T02:31:17;26.83;;;9.33;;
69623;SDS011;56843;52.020;5.670;2022-10-29T02:32:48;28.65;;;8.55;;
69623;SDS011;56843;52.020;5.670;2022-10-29T02:34:18;19.77;;;7.23;;
69623;SDS011;56843;52.020;5.670;2022-10-29T02:35:49;32.93;;;8.83;;
69623;SDS011;56843;52.020;5.670;2022-10-29T02:37:19;25.17;;;9.48;;
69623;SDS011;56843;52.020;5.670;2022-10-29T02:38:50;22.30;;;6.67;;
69623;SDS011;56843;52.020;5.670;2022-10-29T02:40:20;26.03;;;8.17;;
69623;SDS011;56843;52.020;5.670;2022-10-29T02:41:50;20.48;;;5.63;;
69623;SDS011;56843;52.020;5.670;2022-10-29T02:43:21;22.90;;;7.40;;
69623;SDS011;56843;52.020;5.670;2022-10-29T02:44:52;30.15;;;7.18;;
69623;SDS011;56843;52.020;5.670;2022-10-29T02:46:22;25.73;;;7.03;;
69623;SDS011;56843;52.020;5.670;2022-10-29T02:47:53;20.60;;;6.63;;
69623;SDS011;56843;52.020;5.670;2022-10-29T02:49:24;20.30;;;5.80;;
69623;SDS011;56843;52.020;5.670;2022-10-29T02:50:54;24.67;;;7.27;;
69623;SDS011;56843;52.020;5.670;2022-10-29T02:52:25;21.98;;;5.38;;
69623;SDS011;56843;52.020;5.670;2022-10-29T02:53:55;21.17;;;6.27;;
69623;SDS011;56843;52.020;5.670;2022-10-29T02:55:26;23.27;;;6.82;;
69623;SDS011;56843;52.020;5.670;2022-10-29T02:56:56;24.40;;;7.50;;
69623;SDS011;56843;52.020;5.670;2022-10-29T02:58:27;28.10;;;7.07;;
69623;SDS011;56843;52.020;5.670;2022-10-29T02:59:57;31.23;;;7.60;;
69623;SDS011;56843;52.020;5.670;2022-10-29T03:01:27;20.43;;;7.53;;
69623;SDS011;56843;52.020;5.670;2022-10-29T03:02:58;27.90;;;7.50;;
69623;SDS011;56843;52.020;5.670;2022-10-29T03:04:28;31.77;;;7.27;;
69623;SDS011;56843;52.020;5.670;2022-10-29T03:05:59;25.10;;;7.25;;
69623;SDS011;56843;52.020;5.670;2022-10-29T03:07:33;22.57;;;7.30;;
69623;SDS011;56843;52.020;5.670;2022-10-29T03:09:05;21.15;;;7.47;;
69623;SDS011;56843;52.020;5.670;2022-10-29T03:10:35;25.23;;;7.00;;
69623;SDS011;56843;52.020;5.670;2022-10-29T03:12:06;23.43;;;8.27;;
69623;SDS011;56843;52.020;5.670;2022-10-29T03:13:37;21.27;;;8.20;;
69623;SDS011;56843;52.020;5.670;2022-10-29T03:15:07;30.23;;;9.32;;
69623;SDS011;56843;52.020;5.670;2022-10-29T03:16:38;23.43;;;7.87;;
69623;SDS011;56843;52.020;5.670;2022-10-29T03:18:09;29.40;;;7.90;;
69623;SDS011;56843;52.020;5.670;2022-10-29T03:19:39;22.23;;;8.20;;
69623;SDS011;56843;52.020;5.670;2022-10-29T03:21:10;33.07;;;10.00;;
69623;SDS011;56843;52.020;5.670;2022-10-29T03:22:40;29.80;;;9.43;;
69623;SDS011;56843;52.020;5.670;2022-10-29T03:24:11;32.27;;;8.60;;
69623;SDS011;56843;52.020;5.670;2022-10-29T03:25:41;31.10;;;8.75;;
69623;SDS011;56843;52.020;5.670;2022-10-29T03:27:12;27.67;;;8.33;;
69623;SDS011;56843;52.020;5.670;2022-10-29T03:28:42;37.63;;;10.67;;
69623;SDS011;56843;52.020;5.670;2022-10-29T03:30:14;22.63;;;8.50;;
69623;SDS011;56843;52.020;5.670;2022-10-29T03:31:45;37.38;;;9.02;;
69623;SDS011;56843;52.020;5.670;2022-10-29T03:33:16;29.93;;;8.13;;
69623;SDS011;56843;52.020;5.670;2022-10-29T03:34:46;30.95;;;9.25;;
69623;SDS011;56843;52.020;5.670;2022-10-29T03:36:17;26.00;;;8.13;;
69623;SDS011;56843;52.020;5.670;2022-10-29T03:37:50;21.03;;;8.10;;
69623;SDS011;56843;52.020;5.670;2022-10-29T03:39:21;26.65;;;8.43;;
69623;SDS011;56843;52.020;5.670;2022-10-29T03:40:52;32.47;;;9.13;;
69623;SDS011;56843;52.020;5.670;2022-10-29T03:42:23;32.75;;;8.20;;
69623;SDS011;56843;52.020;5.670;2022-10-29T03:43:53;27.42;;;8.93;;
69623;SDS011;56843;52.020;5.670;2022-10-29T03:45:24;24.77;;;7.87;;
69623;SDS011;56843;52.020;5.670;2022-10-29T03:46:55;25.63;;;8.25;;
69623;SDS011;56843;52.020;5.670;2022-10-29T03:48:25;32.63;;;7.80;;
69623;SDS011;56843;52.020;5.670;2022-10-29T03:49:56;23.45;;;7.70;;
69623;SDS011;56843;52.020;5.670;2022-10-29T03:51:26;31.03;;;9.17;;
69623;SDS011;56843;52.020;5.670;2022-10-29T03:52:57;31.03;;;8.87;;
69623;SDS011;56843;52.020;5.670;2022-10-29T03:54:28;35.75;;;8.30;;
69623;SDS011;56843;52.020;5.670;2022-10-29T03:55:58;30.13;;;9.33;;
69623;SDS011;56843;52.020;5.670;2022-10-29T03:57:29;27.67;;;7.97;;
69623;SDS011;56843;52.020;5.670;2022-10-29T03:59:00;29.33;;;9.50;;
69623;SDS011;56843;52.020;5.670;2022-10-29T04:00:30;38.88;;;10.05;;
69623;SDS011;56843;52.020;5.670;2022-10-29T04:02:00;27.73;;;8.17;;
69623;SDS011;56843;52.020;5.670;2022-10-29T04:03:31;24.40;;;8.53;;
69623;SDS011;56843;52.020;5.670;2022-10-29T04:05:03;26.33;;;8.23;;
69623;SDS011;56843;52.020;5.670;2022-10-29T04:06:34;26.10;;;8.25;;
69623;SDS011;56843;52.020;5.670;2022-10-29T04:08:04;27.40;;;8.90;;
69623;SDS011;56843;52.020;5.670;2022-10-29T04:09:35;24.30;;;8.73;;
69623;SDS011;56843;52.020;5.670;2022-10-29T04:11:07;27.97;;;9.97;;
69623;SDS011;56843;52.020;5.670;2022-10-29T04:12:43;32.47;;;9.07;;
69623;SDS011;56843;52.020;5.670;2022-10-29T04:14:14;28.77;;;9.00;;
69623;SDS011;56843;52.020;5.670;2022-10-29T04:15:45;30.70;;;9.10;;
69623;SDS011;56843;52.020;5.670;2022-10-29T04:17:16;34.65;;;10.32;;
69623;SDS011;56843;52.020;5.670;2022-10-29T04:18:46;38.63;;;11.10;;
69623;SDS011;56843;52.020;5.670;2022-10-29T04:20:17;34.15;;;10.15;;
69623;SDS011;56843;52.020;5.670;2022-10-29T04:21:48;29.60;;;10.10;;
69623;SDS011;56843;52.020;5.670;2022-10-29T04:23:18;24.83;;;8.30;;
69623;SDS011;56843;52.020;5.670;2022-10-29T04:24:49;35.57;;;10.33;;
69623;SDS011;56843;52.020;5.670;2022-10-29T04:26:20;26.98;;;10.23;;
69623;SDS011;56843;52.020;5.670;2022-10-29T04:27:52;35.20;;;10.60;;
69623;SDS011;56843;52.020;5.670;2022-10-29T04:29:24;25.55;;;8.55;;
69623;SDS011;56843;52.020;5.670;2022-10-29T04:30:54;39.23;;;10.63;;
69623;SDS011;56843;52.020;5.670;2022-10-29T04:32:25;31.20;;;9.00;;
69623;SDS011;56843;52.020;5.670;2022-10-29T04:33:56;35.90;;;10.88;;
69623;SDS011;56843;52.020;5.670;2022-10-29T04:35:27;23.87;;;8.17;;
69623;SDS011;56843;52.020;5.670;2022-10-29T04:36:58;32.05;;;9.52;;
69623;SDS011;56843;52.020;5.670;2022-10-29T04:38:28;31.37;;;10.70;;
69623;SDS011;56843;52.020;5.670;2022-10-29T04:39:59;28.83;;;10.15;;
69623;SDS011;56843;52.020;5.670;2022-10-29T04:41:29;25.23;;;9.97;;
69623;SDS011;56843;52.020;5.670;2022-10-29T04:43:00;37.90;;;11.03;;
69623;SDS011;56843;52.020;5.670;2022-10-29T04:44:30;28.67;;;8.05;;
69623;SDS011;56843;52.020;5.670;2022-10-29T04:46:01;40.23;;;12.43;;
69623;SDS011;56843;52.020;5.670;2022-10-29T04:47:32;26.83;;;9.70;;
69623;SDS011;56843;52.020;5.670;2022-10-29T04:49:02;32.17;;;11.37;;
69623;SDS011;56843;52.020;5.670;2022-10-29T04:50:34;36.20;;;11.30;;
69623;SDS011;56843;52.020;5.670;2022-10-29T04:52:07;39.30;;;13.87;;
69623;SDS011;56843;52.020;5.670;2022-10-29T04:53:38;52.97;;;13.50;;
69623;SDS011;56843;52.020;5.670;2022-10-29T04:55:09;34.90;;;12.15;;
69623;SDS011;56843;52.020;5.670;2022-10-29T04:56:39;24.80;;;8.40;;
69623;SDS011;56843;52.020;5.670;2022-10-29T04:58:11;26.27;;;9.55;;
69623;SDS011;56843;52.020;5.670;2022-10-29T04:59:46;21.45;;;7.45;;
69623;SDS011;56843;52.020;5.670;2022-10-29T05:01:17;35.93;;;11.63;;
69623;SDS011;56843;52.020;5.670;2022-10-29T05:02:48;36.43;;;12.63;;
69623;SDS011;56843;52.020;5.670;2022-10-29T05:04:19;37.55;;;11.98;;
69623;SDS011;56843;52.020;5.670;2022-10-29T05:05:50;35.25;;;12.38;;
69623;SDS011;56843;52.020;5.670;2022-10-29T05:07:20;31.90;;;11.30;;
69623;SDS011;56843;52.020;5.670;2022-10-29T05:08:51;42.70;;;12.45;;
69623;SDS011;56843;52.020;5.670;2022-10-29T05:10:22;37.60;;;10.17;;
69623;SDS011;56843;52.020;5.670;2022-10-29T05:11:53;34.33;;;10.43;;
69623;SDS011;56843;52.020;5.670;2022-10-29T05:13:23;36.63;;;12.03;;
69623;SDS011;56843;52.020;5.670;2022-10-29T05:14:54;45.30;;;11.48;;
69623;SDS011;56843;52.020;5.670;2022-10-29T05:16:24;23.93;;;9.10;;
69623;SDS011;56843;52.020;5.670;2022-10-29T05:17:55;37.00;;;11.07;;
69623;SDS011;56843;52.020;5.670;2022-10-29T05:19:26;31.55;;;9.80;;
69623;SDS011;56843;52.020;5.670;2022-10-29T05:20:56;38.03;;;12.13;;
69623;SDS011;56843;52.020;5.670;2022-10-29T05:22:27;50.72;;;12.02;;
69623;SDS011;56843;52.020;5.670;2022-10-29T05:23:57;45.23;;;13.63;;
69623;SDS011;56843;52.020;5.670;2022-10-29T05:25:28;34.60;;;13.07;;
69623;SDS011;56843;52.020;5.670;2022-10-29T05:27:01;39.05;;;12.15;;
69623;SDS011;56843;52.020;5.670;2022-10-29T05:28:32;34.97;;;11.02;;
69623;SDS011;56843;52.020;5.670;2022-10-29T05:30:04;35.45;;;12.00;;
69623;SDS011;56843;52.020;5.670;2022-10-29T05:31:35;33.78;;;11.85;;
69623;SDS011;56843;52.020;5.670;2022-10-29T05:33:06;37.73;;;11.63;;
69623;SDS011;56843;52.020;5.670;2022-10-29T05:34:38;43.55;;;12.70;;
69623;SDS011;56843;52.020;5.670;2022-10-29T05:36:08;30.97;;;10.90;;
69623;SDS011;56843;52.020;5.670;2022-10-29T05:37:39;31.92;;;11.90;;
69623;SDS011;56843;52.020;5.670;2022-10-29T05:39:51;33.58;;;11.82;;
69623;SDS011;56843;52.020;5.670;2022-10-29T05:41:21;35.20;;;11.82;;
69623;SDS011;56843;52.020;5.670;2022-10-29T05:42:52;42.77;;;10.17;;
69623;SDS011;56843;52.020;5.670;2022-10-29T05:44:23;30.08;;;10.32;;
69623;SDS011;56843;52.020;5.670;2022-10-29T05:45:54;33.95;;;11.35;;
69623;SDS011;56843;52.020;5.670;2022-10-29T05:47:24;30.40;;;10.97;;
69623;SDS011;56843;52.020;5.670;2022-10-29T05:48:54;31.00;;;11.80;;
69623;SDS011;56843;52.020;5.670;2022-10-29T05:50:25;37.20;;;11.45;;
69623;SDS011;56843;52.020;5.670;2022-10-29T05:51:56;40.30;;;11.83;;
69623;SDS011;56843;52.020;5.670;2022-10-29T05:53:27;28.67;;;10.80;;
69623;SDS011;56843;52.020;5.670;2022-10-29T05:54:57;33.07;;;13.10;;
69623;SDS011;56843;52.020;5.670;2022-10-29T05:56:28;47.33;;;13.27;;
69623;SDS011;56843;52.020;5.670;2022-10-29T05:58:01;30.25;;;8.85;;
69623;SDS011;56843;52.020;5.670;2022-10-29T05:59:33;33.33;;;12.15;;
69623;SDS011;56843;52.020;5.670;2022-10-29T06:01:07;40.00;;;13.90;;
69623;SDS011;56843;52.020;5.670;2022-10-29T06:02:41;33.87;;;11.87;;
69623;SDS011;56843;52.020;5.670;2022-10-29T06:04:17;24.87;;;7.27;;
69623;SDS011;56843;52.020;5.670;2022-10-29T06:05:48;37.42;;;12.07;;
69623;SDS011;56843;52.020;5.670;2022-10-29T06:07:19;35.53;;;11.27;;
69623;SDS011;56843;52.020;5.670;2022-10-29T06:08:50;30.00;;;11.33;;
69623;SDS011;56843;52.020;5.670;2022-10-29T06:10:21;34.83;;;11.60;;
69623;SDS011;56843;52.020;5.670;2022-10-29T06:11:53;33.22;;;11.68;;
69623;SDS011;56843;52.020;5.670;2022-10-29T06:13:24;30.08;;;11.20;;
69623;SDS011;56843;52.020;5.670;2022-10-29T06:14:55;47.10;;;12.67;;
69623;SDS011;56843;52.020;5.670;2022-10-29T06:22:00;36.38;;;11.52;;
69623;SDS011;56843;52.020;5.670;2022-10-29T06:23:50;27.63;;;9.32;;
69623;SDS011;56843;52.020;5.670;2022-10-29T06:25:28;40.00;;;13.38;;
69623;SDS011;56843;52.020;5.670;2022-10-29T06:27:01;48.83;;;12.98;;
69623;SDS011;56843;52.020;5.670;2022-10-29T06:28:34;31.53;;;10.27;;
69623;SDS011;56843;52.020;5.670;2022-10-29T06:30:05;43.07;;;12.97;;
69623;SDS011;56843;52.020;5.670;2022-10-29T06:31:36;38.45;;;11.63;;
69623;SDS011;56843;52.020;5.670;2022-10-29T06:33:17;39.03;;;12.57;;
69623;SDS011;56843;52.020;5.670;2022-10-29T06:40:22;30.30;;;10.70;;
69623;SDS011;56843;52.020;5.670;2022-10-29T06:45:06;29.88;;;11.48;;
69623;SDS011;56843;52.020;5.670;2022-10-29T06:46:37;36.75;;;12.13;;
69623;SDS011;56843;52.020;5.670;2022-10-29T06:48:08;42.85;;;12.77;;
69623;SDS011;56843;52.020;5.670;2022-10-29T06:49:38;36.67;;;12.03;;
69623;SDS011;56843;52.020;5.670;2022-10-29T06:51:11;30.50;;;11.63;;
69623;SDS011;56843;52.020;5.670;2022-10-29T06:52:42;52.63;;;13.02;;
69623;SDS011;56843;52.020;5.670;2022-10-29T06:54:13;46.47;;;12.30;;
69623;SDS011;56843;52.020;5.670;2022-10-29T06:55:44;41.23;;;13.10;;
69623;SDS011;56843;52.020;5.670;2022-10-29T06:57:17;43.45;;;12.13;;
69623;SDS011;56843;52.020;5.670;2022-10-29T06:58:47;31.92;;;11.43;;
69623;SDS011;56843;52.020;5.670;2022-10-29T07:00:18;29.50;;;8.73;;
69623;SDS011;56843;52.020;5.670;2022-10-29T07:01:48;31.23;;;11.60;;
69623;SDS011;56843;52.020;5.670;2022-10-29T07:03:22;35.28;;;10.63;;
69623;SDS011;56843;52.020;5.670;2022-10-29T07:04:53;45.22;;;11.07;;
69623;SDS011;56843;52.020;5.670;2022-10-29T07:06:26;29.52;;;10.75;;
69623;SDS011;56843;52.020;5.670;2022-10-29T07:07:58;39.83;;;11.13;;
69623;SDS011;56843;52.020;5.670;2022-10-29T07:09:30;36.58;;;11.25;;
69623;SDS011;56843;52.020;5.670;2022-10-29T07:11:00;27.90;;;10.27;;
69623;SDS011;56843;52.020;5.670;2022-10-29T07:12:37;27.87;;;10.07;;
69623;SDS011;56843;52.020;5.670;2022-10-29T07:14:13;33.30;;;11.13;;
69623;SDS011;56843;52.020;5.670;2022-10-29T07:15:44;37.40;;;11.70;;
69623;SDS011;56843;52.020;5.670;2022-10-29T07:17:14;33.80;;;10.90;;
69623;SDS011;56843;52.020;5.670;2022-10-29T07:18:47;32.53;;;9.85;;
69623;SDS011;56843;52.020;5.670;2022-10-29T07:20:21;41.70;;;10.52;;
69623;SDS011;56843;52.020;5.670;2022-10-29T07:21:52;32.67;;;10.27;;
69623;SDS011;56843;52.020;5.670;2022-10-29T07:23:23;26.57;;;10.53;;
69623;SDS011;56843;52.020;5.670;2022-10-29T07:24:53;36.43;;;10.03;;
69623;SDS011;56843;52.020;5.670;2022-10-29T07:26:24;28.52;;;9.55;;
69623;SDS011;56843;52.020;5.670;2022-10-29T07:28:05;26.80;;;9.87;;
69623;SDS011;56843;52.020;5.670;2022-10-29T07:29:46;35.33;;;9.57;;
69623;SDS011;56843;52.020;5.670;2022-10-29T07:31:17;36.40;;;11.00;;
69623;SDS011;56843;52.020;5.670;2022-10-29T07:32:47;35.23;;;10.80;;
69623;SDS011;56843;52.020;5.670;2022-10-29T07:34:17;36.17;;;10.47;;
69623;SDS011;56843;52.020;5.670;2022-10-29T07:35:48;31.97;;;10.83;;
69623;SDS011;56843;52.020;5.670;2022-10-29T07:37:21;28.25;;;9.88;;
69623;SDS011;56843;52.020;5.670;2022-10-29T07:39:01;31.92;;;9.30;;
69623;SDS011;56843;52.020;5.670;2022-10-29T07:40:34;31.02;;;9.70;;
69623;SDS011;56843;52.020;5.670;2022-10-29T07:42:08;32.45;;;10.90;;
69623;SDS011;56843;52.020;5.670;2022-10-29T07:43:39;18.33;;;6.13;;
69623;SDS011;56843;52.020;5.670;2022-10-29T07:45:10;35.53;;;11.20;;
69623;SDS011;56843;52.020;5.670;2022-10-29T07:46:55;36.78;;;10.82;;
69623;SDS011;56843;52.020;5.670;2022-10-29T07:51:58;29.17;;;9.55;;
69623;SDS011;56843;52.020;5.670;2022-10-29T07:53:41;33.33;;;11.30;;
69623;SDS011;56843;52.020;5.670;2022-10-29T08:05:36;34.25;;;11.07;;
69623;SDS011;56843;52.020;5.670;2022-10-29T08:07:21;28.85;;;10.80;;
69623;SDS011;56843;52.020;5.670;2022-10-29T08:09:05;30.70;;;10.88;;
69623;SDS011;56843;52.020;5.670;2022-10-29T08:10:57;31.75;;;11.75;;
69623;SDS011;56843;52.020;5.670;2022-10-29T08:12:47;27.47;;;9.80;;
69623;SDS011;56843;52.020;5.670;2022-10-29T08:54:36;19.73;;;6.13;;
69623;SDS011;56843;52.020;5.670;2022-10-29T08:56:32;17.83;;;5.47;;
69623;SDS011;56843;52.020;5.670;2022-10-29T09:31:45;14.30;;;4.68;;
69623;SDS011;56843;52.020;5.670;2022-10-29T09:33:21;13.40;;;4.75;;
69623;SDS011;56843;52.020;5.670;2022-10-29T09:35:14;13.93;;;4.60;;
69623;SDS011;56843;52.020;5.670;2022-10-29T09:44:47;16.42;;;4.63;;
69623;SDS011;56843;52.020;5.670;2022-10-29T09:53:14;15.60;;;4.77;;
69623;SDS011;56843;52.020;5.670;2022-10-29T09:54:54;13.73;;;4.60;;
69623;SDS011;56843;52.020;5.670;2022-10-29T09:57:08;19.48;;;5.18;;
69623;SDS011;56843;52.020;5.670;2022-10-29T09:58:54;16.33;;;5.30;;
69623;SDS011;56843;52.020;5.670;2022-10-29T10:00:29;13.65;;;4.18;;
69623;SDS011;56843;52.020;5.670;2022-10-29T10:02:01;12.40;;;5.22;;
69623;SDS011;56843;52.020;5.670;2022-10-29T10:03:51;19.63;;;5.05;;
69623;SDS011;56843;52.020;5.670;2022-10-29T10:05:27;18.95;;;5.28;;
69623;SDS011;56843;52.020;5.670;2022-10-29T10:07:07;19.25;;;4.75;;
69623;SDS011;56843;52.020;5.670;2022-10-29T10:10:38;15.53;;;5.30;;
69623;SDS011;56843;52.020;5.670;2022-10-29T10:26:41;7.22;;;2.20;;
69623;SDS011;56843;52.020;5.670;2022-10-29T10:32:12;16.63;;;5.38;;
69623;SDS011;56843;52.020;5.670;2022-10-29T10:33:53;15.23;;;4.27;;
69623;SDS011;56843;52.020;5.670;2022-10-29T11:04:25;14.52;;;4.32;;
69623;SDS011;56843;52.020;5.670;2022-10-29T11:29:44;11.23;;;4.32;;
69623;SDS011;56843;52.020;5.670;2022-10-29T11:32:00;13.23;;;4.55;;
69623;SDS011;56843;52.020;5.670;2022-10-29T11:34:46;20.70;;;4.70;;
69623;SDS011;56843;52.020;5.670;2022-10-29T12:06:02;13.60;;;5.05;;
69623;SDS011;56843;52.020;5.670;2022-10-29T12:50:05;9.23;;;3.33;;
69623;SDS011;56843;52.020;5.670;2022-10-29T12:51:48;11.65;;;4.13;;
69623;SDS011;56843;52.020;5.670;2022-10-29T12:55:51;11.93;;;4.22;;
69623;SDS011;56843;52.020;5.670;2022-10-29T13:00:40;15.30;;;3.97;;
69623;SDS011;56843;52.020;5.670;2022-10-29T13:05:15;16.60;;;4.53;;
69623;SDS011;56843;52.020;5.670;2022-10-29T13:09:25;14.43;;;4.17;;
69623;SDS011;56843;52.020;5.670;2022-10-29T13:11:17;14.00;;;4.37;;
69623;SDS011;56843;52.020;5.670;2022-10-29T13:19:34;13.85;;;4.97;;
69623;SDS011;56843;52.020;5.670;2022-10-29T13:33:54;18.70;;;4.87;;
69623;SDS011;56843;52.020;5.670;2022-10-29T13:35:53;18.43;;;4.77;;
69623;SDS011;56843;52.020;5.670;2022-10-29T14:01:49;14.18;;;4.32;;
69623;SDS011;56843;52.020;5.670;2022-10-29T14:05:28;14.33;;;4.00;;
69623;SDS011;56843;52.020;5.670;2022-10-29T14:07:03;12.20;;;4.10;;
69623;SDS011;56843;52.020;5.670;2022-10-29T14:08:49;15.63;;;4.30;;
69623;SDS011;56843;52.020;5.670;2022-10-29T14:10:31;12.82;;;4.15;;
69623;SDS011;56843;52.020;5.670;2022-10-29T14:12:05;16.63;;;4.47;;
69623;SDS011;56843;52.020;5.670;2022-10-29T14:15:15;14.32;;;3.67;;
69623;SDS011;56843;52.020;5.670;2022-10-29T14:16:47;14.75;;;4.18;;
69623;SDS011;56843;52.020;5.670;2022-10-29T14:18:23;14.37;;;4.10;;
69623;SDS011;56843;52.020;5.670;2022-10-29T14:19:55;16.73;;;4.00;;
69623;SDS011;56843;52.020;5.670;2022-10-29T14:21:27;12.40;;;4.03;;
69623;SDS011;56843;52.020;5.670;2022-10-29T14:23:05;14.68;;;3.63;;
69623;SDS011;56843;52.020;5.670;2022-10-29T14:24:37;10.18;;;3.50;;
69623;SDS011;56843;52.020;5.670;2022-10-29T14:26:13;14.38;;;4.30;;
69623;SDS011;56843;52.020;5.670;2022-10-29T14:27:45;11.70;;;3.72;;
69623;SDS011;56843;52.020;5.670;2022-10-29T14:29:19;16.33;;;4.40;;
69623;SDS011;56843;52.020;5.670;2022-10-29T14:32:35;14.85;;;4.22;;
69623;SDS011;56843;52.020;5.670;2022-10-29T14:34:12;16.55;;;4.20;;
69623;SDS011;56843;52.020;5.670;2022-10-29T14:35:54;14.15;;;4.22;;
69623;SDS011;56843;52.020;5.670;2022-10-29T14:37:58;18.73;;;4.40;;
69623;SDS011;56843;52.020;5.670;2022-10-29T14:39:33;17.40;;;3.67;;
69623;SDS011;56843;52.020;5.670;2022-10-29T14:41:09;13.53;;;3.87;;
69623;SDS011;56843;52.020;5.670;2022-10-29T14:42:45;13.80;;;4.00;;
69623;SDS011;56843;52.020;5.670;2022-10-29T14:44:30;15.93;;;4.50;;
69623;SDS011;56843;52.020;5.670;2022-10-29T14:48:08;12.93;;;3.70;;
69623;SDS011;56843;52.020;5.670;2022-10-29T14:49:45;22.50;;;3.92;;
69623;SDS011;56843;52.020;5.670;2022-10-29T14:51:19;21.55;;;4.50;;
69623;SDS011;56843;52.020;5.670;2022-10-29T14:52:52;17.38;;;4.72;;
69623;SDS011;56843;52.020;5.670;2022-10-29T14:54:29;10.63;;;3.63;;
69623;SDS011;56843;52.020;5.670;2022-10-29T14:56:06;11.30;;;3.83;;
69623;SDS011;56843;52.020;5.670;2022-10-29T14:57:40;11.13;;;3.70;;
69623;SDS011;56843;52.020;5.670;2022-10-29T14:59:18;12.48;;;3.63;;
69623;SDS011;56843;52.020;5.670;2022-10-29T15:02:34;18.35;;;3.90;;
69623;SDS011;56843;52.020;5.670;2022-10-29T15:04:12;16.73;;;4.10;;
69623;SDS011;56843;52.020;5.670;2022-10-29T15:05:50;14.43;;;3.80;;
69623;SDS011;56843;52.020;5.670;2022-10-29T15:08:53;12.53;;;4.00;;
69623;SDS011;56843;52.020;5.670;2022-10-29T15:10:27;16.23;;;4.78;;